sensor_id;sensor_type;location;lat;lon;timestamp;P1;durP1;ratioP1;P2;durP2;ratioP2
10403;SDS011;5248;47.374;8.486;2023-09-12T00:02:00;8.88;;;8.20;;
10403;SDS011;5248;47.374;8.486;2023-09-12T00:04:27;9.32;;;8.52;;
10403;SDS011;5248;47.374;8.486;2023-09-12T00:06:54;8.55;;;7.63;;
10403;SDS011;5248;47.374;8.486;2023-09-12T00:09:21;8.65;;;7.95;;
10403;SDS011;5248;47.374;8.486;2023-09-12T00:11:47;8.68;;;7.80;;
10403;SDS011;5248;47.374;8.486;2023-09-12T00:14:14;10.23;;;8.68;;
10403;SDS011;5248;47.374;8.486;2023-09-12T00:16:42;9.23;;;8.32;;
10403;SDS011;5248;47.374;8.486;2023-09-12T00:19:09;8.60;;;7.90;;
10403;SDS011;5248;47.374;8.486;2023-09-12T00:21:36;9.27;;;8.32;;
10403;SDS011;5248;47.374;8.486;2023-09-12T00:24:02;8.60;;;8.00;;
10403;SDS011;5248;47.374;8.486;2023-09-12T00:26:29;9.02;;;8.32;;
10403;SDS011;5248;47.374;8.486;2023-09-12T00:28:56;9.43;;;8.73;;
10403;SDS011;5248;47.374;8.486;2023-09-12T00:31:24;9.25;;;8.23;;
10403;SDS011;5248;47.374;8.486;2023-09-12T00:33:52;9.80;;;9.02;;
10403;SDS011;5248;47.374;8.486;2023-09-12T00:36:18;9.70;;;8.73;;
10403;SDS011;5248;47.374;8.486;2023-09-12T00:38:45;8.73;;;8.10;;
10403;SDS011;5248;47.374;8.486;2023-09-12T00:41:12;9.13;;;8.43;;
10403;SDS011;5248;47.374;8.486;2023-09-12T00:43:39;8.98;;;8.27;;
10403;SDS011;5248;47.374;8.486;2023-09-12T00:46:05;8.50;;;7.80;;
10403;SDS011;5248;47.374;8.486;2023-09-12T00:48:32;9.50;;;8.43;;
10403;SDS011;5248;47.374;8.486;2023-09-12T00:51:00;9.02;;;8.32;;
10403;SDS011;5248;47.374;8.486;2023-09-12T00:53:28;9.60;;;8.68;;
10403;SDS011;5248;47.374;8.486;2023-09-12T00:55:56;9.88;;;9.07;;
10403;SDS011;5248;47.374;8.486;2023-09-12T00:58:23;9.30;;;8.55;;
10403;SDS011;5248;47.374;8.486;2023-09-12T01:00:50;9.57;;;8.10;;
10403;SDS011;5248;47.374;8.486;2023-09-12T01:03:17;9.02;;;8.32;;
10403;SDS011;5248;47.374;8.486;2023-09-12T01:05:44;9.57;;;8.68;;
10403;SDS011;5248;47.374;8.486;2023-09-12T01:08:12;9.05;;;8.35;;
10403;SDS011;5248;47.374;8.486;2023-09-12T01:10:38;9.50;;;8.65;;
10403;SDS011;5248;47.374;8.486;2023-09-12T01:13:11;8.45;;;7.72;;
10403;SDS011;5248;47.374;8.486;2023-09-12T01:15:38;9.07;;;8.38;;
10403;SDS011;5248;47.374;8.486;2023-09-12T01:18:04;9.80;;;8.90;;
10403;SDS011;5248;47.374;8.486;2023-09-12T01:20:32;9.57;;;8.77;;
10403;SDS011;5248;47.374;8.486;2023-09-12T01:23:05;9.90;;;8.98;;
10403;SDS011;5248;47.374;8.486;2023-09-12T01:25:45;9.75;;;8.88;;
10403;SDS011;5248;47.374;8.486;2023-09-12T01:28:24;9.10;;;8.38;;
10403;SDS011;5248;47.374;8.486;2023-09-12T01:30:51;9.40;;;8.68;;
10403;SDS011;5248;47.374;8.486;2023-09-12T01:33:18;9.50;;;8.75;;
10403;SDS011;5248;47.374;8.486;2023-09-12T01:35:45;9.93;;;8.93;;
10403;SDS011;5248;47.374;8.486;2023-09-12T01:38:12;9.10;;;8.40;;
10403;SDS011;5248;47.374;8.486;2023-09-12T01:40:41;9.80;;;8.90;;
10403;SDS011;5248;47.374;8.486;2023-09-12T01:43:09;9.88;;;8.95;;
10403;SDS011;5248;47.374;8.486;2023-09-12T01:45:37;9.30;;;8.57;;
10403;SDS011;5248;47.374;8.486;2023-09-12T01:48:04;9.75;;;9.00;;
10403;SDS011;5248;47.374;8.486;2023-09-12T01:50:31;10.10;;;9.20;;
10403;SDS011;5248;47.374;8.486;2023-09-12T01:52:59;10.07;;;9.13;;
10403;SDS011;5248;47.374;8.486;2023-09-12T01:55:26;10.00;;;9.20;;
10403;SDS011;5248;47.374;8.486;2023-09-12T01:57:53;10.25;;;9.30;;
10403;SDS011;5248;47.374;8.486;2023-09-12T02:00:20;10.48;;;9.48;;
10403;SDS011;5248;47.374;8.486;2023-09-12T02:02:50;9.23;;;8.52;;
10403;SDS011;5248;47.374;8.486;2023-09-12T02:05:17;10.30;;;9.35;;
10403;SDS011;5248;47.374;8.486;2023-09-12T02:07:45;10.02;;;9.15;;
10403;SDS011;5248;47.374;8.486;2023-09-12T02:10:13;9.80;;;9.07;;
10403;SDS011;5248;47.374;8.486;2023-09-12T02:12:40;10.20;;;9.30;;
10403;SDS011;5248;47.374;8.486;2023-09-12T02:15:09;10.43;;;9.63;;
10403;SDS011;5248;47.374;8.486;2023-09-12T02:17:36;10.52;;;9.63;;
10403;SDS011;5248;47.374;8.486;2023-09-12T02:20:06;10.20;;;9.40;;
10403;SDS011;5248;47.374;8.486;2023-09-12T02:22:34;11.38;;;9.82;;
10403;SDS011;5248;47.374;8.486;2023-09-12T02:25:02;9.52;;;8.75;;
10403;SDS011;5248;47.374;8.486;2023-09-12T02:27:29;10.45;;;9.55;;
10403;SDS011;5248;47.374;8.486;2023-09-12T02:29:56;9.70;;;9.00;;
10403;SDS011;5248;47.374;8.486;2023-09-12T02:32:22;10.50;;;9.48;;
10403;SDS011;5248;47.374;8.486;2023-09-12T02:34:49;10.68;;;9.77;;
10403;SDS011;5248;47.374;8.486;2023-09-12T02:37:17;12.43;;;10.10;;
10403;SDS011;5248;47.374;8.486;2023-09-12T02:39:43;10.88;;;9.65;;
10403;SDS011;5248;47.374;8.486;2023-09-12T02:42:10;11.45;;;10.32;;
10403;SDS011;5248;47.374;8.486;2023-09-12T02:44:36;10.70;;;9.85;;
10403;SDS011;5248;47.374;8.486;2023-09-12T02:47:04;10.43;;;9.60;;
10403;SDS011;5248;47.374;8.486;2023-09-12T02:49:31;12.68;;;9.98;;
10403;SDS011;5248;47.374;8.486;2023-09-12T02:51:57;10.52;;;9.57;;
10403;SDS011;5248;47.374;8.486;2023-09-12T02:54:25;11.15;;;10.00;;
10403;SDS011;5248;47.374;8.486;2023-09-12T02:56:52;10.82;;;9.93;;
10403;SDS011;5248;47.374;8.486;2023-09-12T02:59:18;11.70;;;9.90;;
10403;SDS011;5248;47.374;8.486;2023-09-12T03:01:46;10.30;;;9.40;;
10403;SDS011;5248;47.374;8.486;2023-09-12T03:04:12;10.13;;;9.32;;
10403;SDS011;5248;47.374;8.486;2023-09-12T03:06:39;10.13;;;9.30;;
10403;SDS011;5248;47.374;8.486;2023-09-12T03:09:07;11.10;;;10.15;;
10403;SDS011;5248;47.374;8.486;2023-09-12T03:11:35;10.73;;;9.68;;
10403;SDS011;5248;47.374;8.486;2023-09-12T03:14:02;10.05;;;9.32;;
10403;SDS011;5248;47.374;8.486;2023-09-12T03:16:28;10.90;;;10.00;;
10403;SDS011;5248;47.374;8.486;2023-09-12T03:18:55;11.25;;;10.25;;
10403;SDS011;5248;47.374;8.486;2023-09-12T03:21:21;10.45;;;9.65;;
10403;SDS011;5248;47.374;8.486;2023-09-12T03:23:47;11.35;;;10.45;;
10403;SDS011;5248;47.374;8.486;2023-09-12T03:26:14;10.80;;;9.95;;
10403;SDS011;5248;47.374;8.486;2023-09-12T03:28:42;11.23;;;10.25;;
10403;SDS011;5248;47.374;8.486;2023-09-12T03:31:09;11.20;;;10.20;;
10403;SDS011;5248;47.374;8.486;2023-09-12T03:33:37;10.75;;;9.88;;
10403;SDS011;5248;47.374;8.486;2023-09-12T03:36:04;11.13;;;10.23;;
10403;SDS011;5248;47.374;8.486;2023-09-12T03:38:31;11.55;;;10.40;;
10403;SDS011;5248;47.374;8.486;2023-09-12T03:40:59;11.55;;;10.48;;
10403;SDS011;5248;47.374;8.486;2023-09-12T03:43:26;11.60;;;10.50;;
10403;SDS011;5248;47.374;8.486;2023-09-12T03:45:54;11.50;;;10.50;;
10403;SDS011;5248;47.374;8.486;2023-09-12T03:48:20;11.90;;;10.77;;
10403;SDS011;5248;47.374;8.486;2023-09-12T03:50:47;11.02;;;10.10;;
10403;SDS011;5248;47.374;8.486;2023-09-12T03:53:14;11.43;;;10.32;;
10403;SDS011;5248;47.374;8.486;2023-09-12T03:55:40;11.68;;;10.65;;
10403;SDS011;5248;47.374;8.486;2023-09-12T03:58:07;11.15;;;10.15;;
10403;SDS011;5248;47.374;8.486;2023-09-12T04:00:33;11.57;;;10.57;;
10403;SDS011;5248;47.374;8.486;2023-09-12T04:03:01;12.13;;;10.85;;
10403;SDS011;5248;47.374;8.486;2023-09-12T04:05:28;11.35;;;10.27;;
10403;SDS011;5248;47.374;8.486;2023-09-12T04:07:54;11.23;;;10.32;;
10403;SDS011;5248;47.374;8.486;2023-09-12T04:10:20;11.55;;;10.38;;
10403;SDS011;5248;47.374;8.486;2023-09-12T04:12:47;11.63;;;10.63;;
10403;SDS011;5248;47.374;8.486;2023-09-12T04:15:13;11.48;;;10.40;;
10403;SDS011;5248;47.374;8.486;2023-09-12T04:17:40;11.30;;;10.20;;
10403;SDS011;5248;47.374;8.486;2023-09-12T04:20:08;10.75;;;9.93;;
10403;SDS011;5248;47.374;8.486;2023-09-12T04:22:35;11.23;;;10.23;;
10403;SDS011;5248;47.374;8.486;2023-09-12T04:25:01;11.15;;;10.15;;
10403;SDS011;5248;47.374;8.486;2023-09-12T04:27:29;11.63;;;10.65;;
10403;SDS011;5248;47.374;8.486;2023-09-12T04:29:55;12.00;;;10.80;;
10403;SDS011;5248;47.374;8.486;2023-09-12T04:32:21;11.45;;;10.50;;
10403;SDS011;5248;47.374;8.486;2023-09-12T04:34:49;11.35;;;10.25;;
10403;SDS011;5248;47.374;8.486;2023-09-12T04:37:16;11.98;;;10.88;;
10403;SDS011;5248;47.374;8.486;2023-09-12T04:39:44;11.05;;;10.25;;
10403;SDS011;5248;47.374;8.486;2023-09-12T04:42:11;11.35;;;10.32;;
10403;SDS011;5248;47.374;8.486;2023-09-12T04:44:38;11.85;;;10.85;;
10403;SDS011;5248;47.374;8.486;2023-09-12T04:47:07;12.25;;;11.10;;
10403;SDS011;5248;47.374;8.486;2023-09-12T04:49:34;12.02;;;10.95;;
10403;SDS011;5248;47.374;8.486;2023-09-12T04:52:01;11.32;;;10.32;;
10403;SDS011;5248;47.374;8.486;2023-09-12T04:54:29;12.70;;;11.40;;
10403;SDS011;5248;47.374;8.486;2023-09-12T04:56:56;12.10;;;11.02;;
10403;SDS011;5248;47.374;8.486;2023-09-12T04:59:22;11.45;;;10.40;;
10403;SDS011;5248;47.374;8.486;2023-09-12T05:01:49;10.90;;;9.95;;
10403;SDS011;5248;47.374;8.486;2023-09-12T05:04:16;11.77;;;10.63;;
10403;SDS011;5248;47.374;8.486;2023-09-12T05:06:43;12.05;;;10.98;;
10403;SDS011;5248;47.374;8.486;2023-09-12T05:09:09;11.68;;;10.68;;
10403;SDS011;5248;47.374;8.486;2023-09-12T05:11:37;12.32;;;11.30;;
10403;SDS011;5248;47.374;8.486;2023-09-12T05:14:06;11.57;;;10.68;;
10403;SDS011;5248;47.374;8.486;2023-09-12T05:16:32;11.60;;;10.70;;
10403;SDS011;5248;47.374;8.486;2023-09-12T05:18:59;12.00;;;10.88;;
10403;SDS011;5248;47.374;8.486;2023-09-12T05:21:25;11.88;;;10.68;;
10403;SDS011;5248;47.374;8.486;2023-09-12T05:23:52;11.90;;;10.90;;
10403;SDS011;5248;47.374;8.486;2023-09-12T05:26:18;11.57;;;10.57;;
10403;SDS011;5248;47.374;8.486;2023-09-12T05:28:46;11.98;;;10.88;;
10403;SDS011;5248;47.374;8.486;2023-09-12T05:31:13;12.02;;;10.95;;
10403;SDS011;5248;47.374;8.486;2023-09-12T05:33:40;13.10;;;11.90;;
10403;SDS011;5248;47.374;8.486;2023-09-12T05:36:06;12.15;;;11.15;;
10403;SDS011;5248;47.374;8.486;2023-09-12T05:38:34;12.55;;;11.45;;
10403;SDS011;5248;47.374;8.486;2023-09-12T05:41:03;11.93;;;10.98;;
10403;SDS011;5248;47.374;8.486;2023-09-12T05:43:30;12.07;;;10.88;;
10403;SDS011;5248;47.374;8.486;2023-09-12T05:45:58;12.38;;;11.32;;
10403;SDS011;5248;47.374;8.486;2023-09-12T05:48:24;12.07;;;10.98;;
10403;SDS011;5248;47.374;8.486;2023-09-12T05:50:51;12.15;;;11.13;;
10403;SDS011;5248;47.374;8.486;2023-09-12T05:53:17;12.40;;;11.40;;
10403;SDS011;5248;47.374;8.486;2023-09-12T05:55:44;12.25;;;11.07;;
10403;SDS011;5248;47.374;8.486;2023-09-12T05:58:10;12.13;;;11.10;;
10403;SDS011;5248;47.374;8.486;2023-09-12T06:00:37;11.85;;;10.88;;
10403;SDS011;5248;47.374;8.486;2023-09-12T06:03:05;12.32;;;11.32;;
10403;SDS011;5248;47.374;8.486;2023-09-12T06:05:33;12.80;;;11.70;;
10403;SDS011;5248;47.374;8.486;2023-09-12T06:07:59;12.57;;;11.43;;
10403;SDS011;5248;47.374;8.486;2023-09-12T06:10:26;12.18;;;11.18;;
10403;SDS011;5248;47.374;8.486;2023-09-12T06:12:52;12.80;;;11.73;;
10403;SDS011;5248;47.374;8.486;2023-09-12T06:15:19;12.68;;;11.65;;
10403;SDS011;5248;47.374;8.486;2023-09-12T06:17:46;12.13;;;11.07;;
10403;SDS011;5248;47.374;8.486;2023-09-12T06:20:13;13.38;;;12.15;;
10403;SDS011;5248;47.374;8.486;2023-09-12T06:22:40;14.52;;;13.23;;
10403;SDS011;5248;47.374;8.486;2023-09-12T06:25:08;14.55;;;13.05;;
10403;SDS011;5248;47.374;8.486;2023-09-12T06:27:34;14.05;;;12.82;;
10403;SDS011;5248;47.374;8.486;2023-09-12T06:30:03;13.02;;;12.00;;
10403;SDS011;5248;47.374;8.486;2023-09-12T06:32:29;13.30;;;12.13;;
10403;SDS011;5248;47.374;8.486;2023-09-12T06:34:56;12.85;;;11.57;;
10403;SDS011;5248;47.374;8.486;2023-09-12T06:37:24;19.52;;;11.70;;
10403;SDS011;5248;47.374;8.486;2023-09-12T06:39:51;12.90;;;11.75;;
10403;SDS011;5248;47.374;8.486;2023-09-12T06:42:17;12.35;;;11.25;;
10403;SDS011;5248;47.374;8.486;2023-09-12T06:44:46;11.23;;;10.20;;
10403;SDS011;5248;47.374;8.486;2023-09-12T06:47:12;11.48;;;10.30;;
10403;SDS011;5248;47.374;8.486;2023-09-12T06:49:39;11.60;;;10.40;;
10403;SDS011;5248;47.374;8.486;2023-09-12T06:52:05;12.18;;;10.93;;
10403;SDS011;5248;47.374;8.486;2023-09-12T06:54:35;13.02;;;10.63;;
10403;SDS011;5248;47.374;8.486;2023-09-12T06:57:02;13.77;;;10.10;;
10403;SDS011;5248;47.374;8.486;2023-09-12T06:59:28;12.63;;;11.40;;
10403;SDS011;5248;47.374;8.486;2023-09-12T07:01:55;11.07;;;10.07;;
10403;SDS011;5248;47.374;8.486;2023-09-12T07:04:22;40.83;;;25.33;;
10403;SDS011;5248;47.374;8.486;2023-09-12T07:06:48;15.40;;;11.30;;
10403;SDS011;5248;47.374;8.486;2023-09-12T07:09:16;42.67;;;13.60;;
10403;SDS011;5248;47.374;8.486;2023-09-12T07:11:47;116.30;;;26.27;;
10403;SDS011;5248;47.374;8.486;2023-09-12T07:14:13;12.35;;;11.10;;
10403;SDS011;5248;47.374;8.486;2023-09-12T07:16:40;17.88;;;11.93;;
10403;SDS011;5248;47.374;8.486;2023-09-12T07:19:06;13.25;;;11.10;;
10403;SDS011;5248;47.374;8.486;2023-09-12T07:21:33;12.07;;;10.73;;
10403;SDS011;5248;47.374;8.486;2023-09-12T07:23:59;37.22;;;20.45;;
10403;SDS011;5248;47.374;8.486;2023-09-12T07:26:26;182.70;;;45.38;;
10403;SDS011;5248;47.374;8.486;2023-09-12T07:28:53;65.43;;;25.00;;
10403;SDS011;5248;47.374;8.486;2023-09-12T07:31:21;16.88;;;12.65;;
10403;SDS011;5248;47.374;8.486;2023-09-12T07:33:48;17.65;;;11.35;;
10403;SDS011;5248;47.374;8.486;2023-09-12T07:36:14;12.20;;;11.10;;
10403;SDS011;5248;47.374;8.486;2023-09-12T07:38:41;23.98;;;11.57;;
10403;SDS011;5248;47.374;8.486;2023-09-12T07:41:10;12.98;;;11.25;;
10403;SDS011;5248;47.374;8.486;2023-09-12T07:43:37;11.30;;;10.15;;
10403;SDS011;5248;47.374;8.486;2023-09-12T07:46:05;12.00;;;10.80;;
10403;SDS011;5248;47.374;8.486;2023-09-12T07:48:31;12.48;;;11.18;;
10403;SDS011;5248;47.374;8.486;2023-09-12T07:50:58;11.85;;;10.75;;
10403;SDS011;5248;47.374;8.486;2023-09-12T07:53:24;12.05;;;10.27;;
10403;SDS011;5248;47.374;8.486;2023-09-12T07:55:51;11.05;;;9.85;;
10403;SDS011;5248;47.374;8.486;2023-09-12T07:58:17;10.77;;;9.95;;
10403;SDS011;5248;47.374;8.486;2023-09-12T08:00:44;10.35;;;9.50;;
10403;SDS011;5248;47.374;8.486;2023-09-12T08:03:15;10.75;;;9.75;;
10403;SDS011;5248;47.374;8.486;2023-09-12T08:05:41;11.23;;;10.13;;
10403;SDS011;5248;47.374;8.486;2023-09-12T08:08:08;10.88;;;9.98;;
10403;SDS011;5248;47.374;8.486;2023-09-12T08:10:34;11.30;;;10.40;;
10403;SDS011;5248;47.374;8.486;2023-09-12T08:13:01;11.05;;;10.18;;
10403;SDS011;5248;47.374;8.486;2023-09-12T08:15:27;10.93;;;9.82;;
10403;SDS011;5248;47.374;8.486;2023-09-12T08:17:55;11.45;;;10.32;;
10403;SDS011;5248;47.374;8.486;2023-09-12T08:20:24;11.70;;;10.45;;
10403;SDS011;5248;47.374;8.486;2023-09-12T08:22:50;11.05;;;9.95;;
10403;SDS011;5248;47.374;8.486;2023-09-12T08:25:17;10.48;;;9.48;;
10403;SDS011;5248;47.374;8.486;2023-09-12T08:27:43;12.50;;;9.65;;
10403;SDS011;5248;47.374;8.486;2023-09-12T08:30:10;11.00;;;10.00;;
10403;SDS011;5248;47.374;8.486;2023-09-12T08:32:38;11.02;;;9.98;;
10403;SDS011;5248;47.374;8.486;2023-09-12T08:35:08;11.25;;;10.02;;
10403;SDS011;5248;47.374;8.486;2023-09-12T08:37:36;10.40;;;9.32;;
10403;SDS011;5248;47.374;8.486;2023-09-12T08:40:05;12.00;;;10.00;;
10403;SDS011;5248;47.374;8.486;2023-09-12T08:42:36;10.40;;;9.48;;
10403;SDS011;5248;47.374;8.486;2023-09-12T08:45:07;12.45;;;9.25;;
10403;SDS011;5248;47.374;8.486;2023-09-12T08:47:40;9.52;;;8.73;;
10403;SDS011;5248;47.374;8.486;2023-09-12T08:50:08;10.48;;;9.45;;
10403;SDS011;5248;47.374;8.486;2023-09-12T08:52:38;10.10;;;9.27;;
10403;SDS011;5248;47.374;8.486;2023-09-12T08:55:06;10.27;;;9.27;;
10403;SDS011;5248;47.374;8.486;2023-09-12T08:57:33;10.73;;;9.52;;
10403;SDS011;5248;47.374;8.486;2023-09-12T09:00:02;11.20;;;9.23;;
10403;SDS011;5248;47.374;8.486;2023-09-12T09:02:31;9.32;;;8.45;;
10403;SDS011;5248;47.374;8.486;2023-09-12T09:04:58;10.80;;;9.25;;
10403;SDS011;5248;47.374;8.486;2023-09-12T09:07:24;8.85;;;8.15;;
10403;SDS011;5248;47.374;8.486;2023-09-12T09:09:53;10.00;;;9.10;;
10403;SDS011;5248;47.374;8.486;2023-09-12T09:12:21;9.63;;;8.70;;
10403;SDS011;5248;47.374;8.486;2023-09-12T09:14:47;11.60;;;9.10;;
10403;SDS011;5248;47.374;8.486;2023-09-12T09:17:14;9.32;;;8.43;;
10403;SDS011;5248;47.374;8.486;2023-09-12T09:19:43;9.75;;;8.77;;
10403;SDS011;5248;47.374;8.486;2023-09-12T09:22:11;9.38;;;8.52;;
10403;SDS011;5248;47.374;8.486;2023-09-12T09:24:37;9.13;;;8.23;;
10403;SDS011;5248;47.374;8.486;2023-09-12T09:27:05;9.27;;;8.43;;
10403;SDS011;5248;47.374;8.486;2023-09-12T09:29:31;10.27;;;8.95;;
10403;SDS011;5248;47.374;8.486;2023-09-12T09:31:59;9.43;;;8.55;;
10403;SDS011;5248;47.374;8.486;2023-09-12T09:34:26;8.55;;;7.85;;
10403;SDS011;5248;47.374;8.486;2023-09-12T09:36:55;9.02;;;8.25;;
10403;SDS011;5248;47.374;8.486;2023-09-12T09:39:23;8.85;;;8.02;;
10403;SDS011;5248;47.374;8.486;2023-09-12T09:41:51;10.27;;;8.43;;
10403;SDS011;5248;47.374;8.486;2023-09-12T09:44:21;9.65;;;8.75;;
10403;SDS011;5248;47.374;8.486;2023-09-12T09:46:51;8.73;;;8.05;;
10403;SDS011;5248;47.374;8.486;2023-09-12T09:49:20;8.80;;;8.00;;
10403;SDS011;5248;47.374;8.486;2023-09-12T09:51:47;8.70;;;7.85;;
10403;SDS011;5248;47.374;8.486;2023-09-12T09:54:14;9.18;;;8.27;;
10403;SDS011;5248;47.374;8.486;2023-09-12T09:56:46;9.10;;;7.45;;
10403;SDS011;5248;47.374;8.486;2023-09-12T09:59:14;9.02;;;8.18;;
10403;SDS011;5248;47.374;8.486;2023-09-12T10:01:42;8.18;;;7.57;;
10403;SDS011;5248;47.374;8.486;2023-09-12T10:04:11;9.07;;;8.38;;
10403;SDS011;5248;47.374;8.486;2023-09-12T10:06:39;9.57;;;8.35;;
10403;SDS011;5248;47.374;8.486;2023-09-12T10:09:09;11.75;;;7.95;;
10403;SDS011;5248;47.374;8.486;2023-09-12T10:11:37;9.40;;;8.43;;
10403;SDS011;5248;47.374;8.486;2023-09-12T10:14:04;8.80;;;8.02;;
10403;SDS011;5248;47.374;8.486;2023-09-12T10:16:32;10.65;;;8.88;;
10403;SDS011;5248;47.374;8.486;2023-09-12T10:19:04;8.93;;;8.13;;
10403;SDS011;5248;47.374;8.486;2023-09-12T10:21:46;11.30;;;8.20;;
10403;SDS011;5248;47.374;8.486;2023-09-12T10:24:14;9.15;;;8.40;;
10403;SDS011;5248;47.374;8.486;2023-09-12T10:26:41;8.80;;;7.88;;
10403;SDS011;5248;47.374;8.486;2023-09-12T10:29:10;8.80;;;8.02;;
10403;SDS011;5248;47.374;8.486;2023-09-12T10:31:38;9.07;;;8.38;;
10403;SDS011;5248;47.374;8.486;2023-09-12T10:34:06;8.80;;;8.10;;
10403;SDS011;5248;47.374;8.486;2023-09-12T10:36:34;10.68;;;8.65;;
10403;SDS011;5248;47.374;8.486;2023-09-12T10:39:03;8.68;;;7.97;;
10403;SDS011;5248;47.374;8.486;2023-09-12T10:41:30;9.00;;;8.30;;
10403;SDS011;5248;47.374;8.486;2023-09-12T10:43:58;9.15;;;8.45;;
10403;SDS011;5248;47.374;8.486;2023-09-12T10:46:25;8.70;;;8.00;;
10403;SDS011;5248;47.374;8.486;2023-09-12T10:48:52;9.05;;;8.27;;
10403;SDS011;5248;47.374;8.486;2023-09-12T10:51:20;8.93;;;8.32;;
10403;SDS011;5248;47.374;8.486;2023-09-12T10:53:47;9.20;;;8.30;;
10403;SDS011;5248;47.374;8.486;2023-09-12T10:56:16;8.98;;;8.20;;
10403;SDS011;5248;47.374;8.486;2023-09-12T11:01:38;9.57;;;8.77;;
10403;SDS011;5248;47.374;8.486;2023-09-12T11:07:04;9.02;;;8.25;;
10403;SDS011;5248;47.374;8.486;2023-09-12T11:12:50;9.07;;;8.25;;
10403;SDS011;5248;47.374;8.486;2023-09-12T11:15:17;9.05;;;8.23;;
10403;SDS011;5248;47.374;8.486;2023-09-12T11:17:45;9.68;;;8.68;;
10403;SDS011;5248;47.374;8.486;2023-09-12T11:20:13;10.43;;;8.93;;
10403;SDS011;5248;47.374;8.486;2023-09-12T11:22:42;9.25;;;8.40;;
10403;SDS011;5248;47.374;8.486;2023-09-12T11:25:17;10.65;;;8.70;;
10403;SDS011;5248;47.374;8.486;2023-09-12T11:27:45;9.15;;;8.40;;
10403;SDS011;5248;47.374;8.486;2023-09-12T11:30:30;9.90;;;9.02;;
10403;SDS011;5248;47.374;8.486;2023-09-12T11:32:57;9.60;;;8.60;;
10403;SDS011;5248;47.374;8.486;2023-09-12T11:35:26;11.43;;;9.20;;
10403;SDS011;5248;47.374;8.486;2023-09-12T11:37:55;8.88;;;8.10;;
10403;SDS011;5248;47.374;8.486;2023-09-12T11:40:23;9.55;;;8.75;;
10403;SDS011;5248;47.374;8.486;2023-09-12T11:42:51;10.00;;;9.07;;
10403;SDS011;5248;47.374;8.486;2023-09-12T11:45:17;9.57;;;8.77;;
10403;SDS011;5248;47.374;8.486;2023-09-12T11:47:45;10.13;;;8.70;;
10403;SDS011;5248;47.374;8.486;2023-09-12T11:50:25;9.25;;;8.38;;
10403;SDS011;5248;47.374;8.486;2023-09-12T11:52:59;8.57;;;7.78;;
10403;SDS011;5248;47.374;8.486;2023-09-12T11:55:26;9.55;;;8.55;;
10403;SDS011;5248;47.374;8.486;2023-09-12T11:57:55;9.52;;;8.60;;
10403;SDS011;5248;47.374;8.486;2023-09-12T12:00:22;9.77;;;8.65;;
10403;SDS011;5248;47.374;8.486;2023-09-12T12:02:51;9.38;;;8.50;;
10403;SDS011;5248;47.374;8.486;2023-09-12T12:05:17;10.50;;;8.32;;
10403;SDS011;5248;47.374;8.486;2023-09-12T12:07:44;8.48;;;7.65;;
10403;SDS011;5248;47.374;8.486;2023-09-12T12:10:14;8.88;;;7.80;;
10403;SDS011;5248;47.374;8.486;2023-09-12T12:12:41;8.00;;;7.20;;
10403;SDS011;5248;47.374;8.486;2023-09-12T12:15:09;8.93;;;8.10;;
10403;SDS011;5248;47.374;8.486;2023-09-12T12:17:36;8.82;;;7.93;;
10403;SDS011;5248;47.374;8.486;2023-09-12T12:20:06;8.80;;;7.90;;
10403;SDS011;5248;47.374;8.486;2023-09-12T12:22:35;8.20;;;7.40;;
10403;SDS011;5248;47.374;8.486;2023-09-12T12:25:05;7.40;;;6.78;;
10403;SDS011;5248;47.374;8.486;2023-09-12T12:27:33;8.43;;;7.80;;
10403;SDS011;5248;47.374;8.486;2023-09-12T12:30:02;8.52;;;7.45;;
10403;SDS011;5248;47.374;8.486;2023-09-12T12:32:30;9.23;;;7.57;;
10403;SDS011;5248;47.374;8.486;2023-09-12T12:34:56;8.57;;;7.97;;
10403;SDS011;5248;47.374;8.486;2023-09-12T12:37:27;8.60;;;7.78;;
10403;SDS011;5248;47.374;8.486;2023-09-12T12:39:55;8.43;;;7.72;;
10403;SDS011;5248;47.374;8.486;2023-09-12T12:42:21;8.43;;;7.72;;
10403;SDS011;5248;47.374;8.486;2023-09-12T12:44:53;8.98;;;8.18;;
10403;SDS011;5248;47.374;8.486;2023-09-12T12:47:20;13.45;;;12.07;;
10403;SDS011;5248;47.374;8.486;2023-09-12T12:49:50;9.73;;;8.43;;
10403;SDS011;5248;47.374;8.486;2023-09-12T12:52:16;8.57;;;7.85;;
10403;SDS011;5248;47.374;8.486;2023-09-12T12:54:43;9.27;;;8.48;;
10403;SDS011;5248;47.374;8.486;2023-09-12T12:57:10;10.70;;;8.20;;
10403;SDS011;5248;47.374;8.486;2023-09-12T12:59:37;8.98;;;8.18;;
10403;SDS011;5248;47.374;8.486;2023-09-12T13:02:06;8.57;;;7.78;;
10403;SDS011;5248;47.374;8.486;2023-09-12T13:04:35;9.15;;;8.10;;
10403;SDS011;5248;47.374;8.486;2023-09-12T13:07:02;13.13;;;8.48;;
10403;SDS011;5248;47.374;8.486;2023-09-12T13:09:31;9.10;;;8.20;;
10403;SDS011;5248;47.374;8.486;2023-09-12T13:11:59;10.25;;;9.23;;
10403;SDS011;5248;47.374;8.486;2023-09-12T13:14:26;8.85;;;8.10;;
10403;SDS011;5248;47.374;8.486;2023-09-12T13:16:57;8.43;;;7.82;;
10403;SDS011;5248;47.374;8.486;2023-09-12T13:19:26;9.15;;;8.35;;
10403;SDS011;5248;47.374;8.486;2023-09-12T13:21:52;8.15;;;7.35;;
10403;SDS011;5248;47.374;8.486;2023-09-12T13:24:20;7.60;;;6.97;;
10403;SDS011;5248;47.374;8.486;2023-09-12T13:26:47;8.10;;;7.50;;
10403;SDS011;5248;47.374;8.486;2023-09-12T13:29:13;8.02;;;7.43;;
10403;SDS011;5248;47.374;8.486;2023-09-12T13:31:41;9.75;;;7.72;;
10403;SDS011;5248;47.374;8.486;2023-09-12T13:34:07;8.57;;;7.68;;
10403;SDS011;5248;47.374;8.486;2023-09-12T13:36:35;8.75;;;8.05;;
10403;SDS011;5248;47.374;8.486;2023-09-12T13:39:02;8.77;;;7.97;;
10403;SDS011;5248;47.374;8.486;2023-09-12T13:41:29;8.43;;;7.72;;
10403;SDS011;5248;47.374;8.486;2023-09-12T13:43:55;8.63;;;7.93;;
10403;SDS011;5248;47.374;8.486;2023-09-12T13:46:22;10.07;;;7.90;;
10403;SDS011;5248;47.374;8.486;2023-09-12T13:48:48;8.55;;;7.95;;
10403;SDS011;5248;47.374;8.486;2023-09-12T13:51:15;8.32;;;7.70;;
10403;SDS011;5248;47.374;8.486;2023-09-12T13:53:43;8.13;;;7.53;;
10403;SDS011;5248;47.374;8.486;2023-09-12T13:56:09;9.45;;;8.60;;
10403;SDS011;5248;47.374;8.486;2023-09-12T13:58:36;7.88;;;7.28;;
10403;SDS011;5248;47.374;8.486;2023-09-12T14:01:02;9.52;;;7.68;;
10403;SDS011;5248;47.374;8.486;2023-09-12T14:03:30;8.57;;;7.43;;
10403;SDS011;5248;47.374;8.486;2023-09-12T14:05:56;8.18;;;7.47;;
10403;SDS011;5248;47.374;8.486;2023-09-12T14:08:23;8.23;;;7.50;;
10403;SDS011;5248;47.374;8.486;2023-09-12T14:10:51;9.35;;;8.45;;
10403;SDS011;5248;47.374;8.486;2023-09-12T14:13:17;9.77;;;8.85;;
10403;SDS011;5248;47.374;8.486;2023-09-12T14:15:48;10.80;;;9.40;;
10403;SDS011;5248;47.374;8.486;2023-09-12T14:18:16;11.25;;;8.95;;
10403;SDS011;5248;47.374;8.486;2023-09-12T14:20:42;10.23;;;9.32;;
10403;SDS011;5248;47.374;8.486;2023-09-12T14:23:09;9.75;;;8.82;;
10403;SDS011;5248;47.374;8.486;2023-09-12T14:25:35;11.80;;;10.70;;
10403;SDS011;5248;47.374;8.486;2023-09-12T14:28:03;9.88;;;9.18;;
10403;SDS011;5248;47.374;8.486;2023-09-12T14:30:31;10.15;;;9.35;;
10403;SDS011;5248;47.374;8.486;2023-09-12T14:33:00;10.52;;;9.65;;
10403;SDS011;5248;47.374;8.486;2023-09-12T14:35:27;10.77;;;9.68;;
10403;SDS011;5248;47.374;8.486;2023-09-12T14:37:53;10.15;;;9.35;;
10403;SDS011;5248;47.374;8.486;2023-09-12T14:40:20;10.02;;;9.10;;
10403;SDS011;5248;47.374;8.486;2023-09-12T14:42:46;9.63;;;8.82;;
10403;SDS011;5248;47.374;8.486;2023-09-12T14:45:14;9.35;;;8.63;;
10403;SDS011;5248;47.374;8.486;2023-09-12T14:47:41;9.90;;;9.10;;
10403;SDS011;5248;47.374;8.486;2023-09-12T14:50:07;10.50;;;8.52;;
10403;SDS011;5248;47.374;8.486;2023-09-12T14:52:34;8.07;;;7.43;;
10403;SDS011;5248;47.374;8.486;2023-09-12T14:55:03;7.38;;;6.70;;
10403;SDS011;5248;47.374;8.486;2023-09-12T14:57:30;6.68;;;6.10;;
10403;SDS011;5248;47.374;8.486;2023-09-12T14:59:57;5.78;;;5.30;;